sensor_id;sensor_type;location;lat;lon;timestamp;P1;durP1;ratioP1;P2;durP2;ratioP2
35839;SDS011;35514;50.504;30.500;2022-09-09T00:01:33;3.70;;;2.40;;
35839;SDS011;35514;50.504;30.500;2022-09-09T00:04:05;8.43;;;2.28;;
35839;SDS011;35514;50.504;30.500;2022-09-09T00:06:43;5.45;;;2.53;;
35839;SDS011;35514;50.504;30.500;2022-09-09T00:09:12;3.97;;;2.40;;
35839;SDS011;35514;50.504;30.500;2022-09-09T00:11:41;8.35;;;2.20;;
35839;SDS011;35514;50.504;30.500;2022-09-09T00:14:15;12.35;;;2.58;;
35839;SDS011;35514;50.504;30.500;2022-09-09T00:16:47;5.43;;;2.30;;
35839;SDS011;35514;50.504;30.500;2022-09-09T00:19:20;7.05;;;2.30;;
35839;SDS011;35514;50.504;30.500;2022-09-09T00:21:51;5.13;;;2.42;;
35839;SDS011;35514;50.504;30.500;2022-09-09T00:24:24;6.80;;;2.50;;
35839;SDS011;35514;50.504;30.500;2022-09-09T00:26:53;7.68;;;2.70;;
35839;SDS011;35514;50.504;30.500;2022-09-09T00:29:25;7.50;;;3.15;;
35839;SDS011;35514;50.504;30.500;2022-09-09T00:31:57;4.75;;;2.13;;
35839;SDS011;35514;50.504;30.500;2022-09-09T00:34:29;7.80;;;2.35;;
35839;SDS011;35514;50.504;30.500;2022-09-09T00:36:59;6.22;;;2.90;;
35839;SDS011;35514;50.504;30.500;2022-09-09T00:39:27;6.05;;;2.38;;
35839;SDS011;35514;50.504;30.500;2022-09-09T00:42:02;6.07;;;2.90;;
35839;SDS011;35514;50.504;30.500;2022-09-09T00:44:36;5.72;;;2.67;;
35839;SDS011;35514;50.504;30.500;2022-09-09T00:47:17;5.03;;;2.55;;
35839;SDS011;35514;50.504;30.500;2022-09-09T00:49:55;6.75;;;2.55;;
35839;SDS011;35514;50.504;30.500;2022-09-09T00:52:30;8.30;;;2.90;;
35839;SDS011;35514;50.504;30.500;2022-09-09T00:55:03;12.75;;;2.95;;
35839;SDS011;35514;50.504;30.500;2022-09-09T00:57:33;10.82;;;2.88;;
35839;SDS011;35514;50.504;30.500;2022-09-09T01:00:17;5.57;;;2.42;;
35839;SDS011;35514;50.504;30.500;2022-09-09T01:02:48;5.55;;;2.47;;
35839;SDS011;35514;50.504;30.500;2022-09-09T01:05:19;4.90;;;2.53;;
35839;SDS011;35514;50.504;30.500;2022-09-09T01:07:51;6.28;;;2.92;;
35839;SDS011;35514;50.504;30.500;2022-09-09T01:10:26;5.60;;;2.47;;
35839;SDS011;35514;50.504;30.500;2022-09-09T01:12:56;8.60;;;2.72;;
35839;SDS011;35514;50.504;30.500;2022-09-09T01:15:26;9.88;;;2.83;;
35839;SDS011;35514;50.504;30.500;2022-09-09T01:17:58;11.65;;;2.63;;
35839;SDS011;35514;50.504;30.500;2022-09-09T01:20:29;6.22;;;2.78;;
35839;SDS011;35514;50.504;30.500;2022-09-09T01:23:12;6.22;;;2.33;;
35839;SDS011;35514;50.504;30.500;2022-09-09T01:26:03;5.93;;;2.53;;
35839;SDS011;35514;50.504;30.500;2022-09-09T01:28:32;6.65;;;2.78;;
35839;SDS011;35514;50.504;30.500;2022-09-09T01:31:02;6.55;;;2.63;;
35839;SDS011;35514;50.504;30.500;2022-09-09T01:33:30;4.32;;;2.10;;
35839;SDS011;35514;50.504;30.500;2022-09-09T01:35:59;4.20;;;2.20;;
35839;SDS011;35514;50.504;30.500;2022-09-09T01:38:28;6.15;;;2.58;;
35839;SDS011;35514;50.504;30.500;2022-09-09T01:40:58;4.40;;;2.40;;
35839;SDS011;35514;50.504;30.500;2022-09-09T01:43:26;7.38;;;2.83;;
35839;SDS011;35514;50.504;30.500;2022-09-09T01:45:55;5.38;;;2.58;;
35839;SDS011;35514;50.504;30.500;2022-09-09T01:48:24;4.70;;;2.67;;
35839;SDS011;35514;50.504;30.500;2022-09-09T01:50:52;7.53;;;2.90;;
35839;SDS011;35514;50.504;30.500;2022-09-09T01:53:20;8.70;;;2.80;;
35839;SDS011;35514;50.504;30.500;2022-09-09T01:55:49;7.57;;;2.95;;
35839;SDS011;35514;50.504;30.500;2022-09-09T01:58:27;5.93;;;2.80;;
35839;SDS011;35514;50.504;30.500;2022-09-09T02:01:00;4.47;;;2.70;;
35839;SDS011;35514;50.504;30.500;2022-09-09T02:03:29;4.57;;;2.20;;
35839;SDS011;35514;50.504;30.500;2022-09-09T02:06:00;6.07;;;2.40;;
35839;SDS011;35514;50.504;30.500;2022-09-09T02:08:32;3.58;;;2.45;;
35839;SDS011;35514;50.504;30.500;2022-09-09T02:11:03;6.57;;;2.45;;
35839;SDS011;35514;50.504;30.500;2022-09-09T02:13:34;5.00;;;2.38;;
35839;SDS011;35514;50.504;30.500;2022-09-09T02:16:05;7.30;;;2.80;;
35839;SDS011;35514;50.504;30.500;2022-09-09T02:18:35;5.55;;;2.40;;
35839;SDS011;35514;50.504;30.500;2022-09-09T02:21:03;6.60;;;2.70;;
35839;SDS011;35514;50.504;30.500;2022-09-09T02:23:33;10.63;;;3.08;;
35839;SDS011;35514;50.504;30.500;2022-09-09T02:26:01;6.10;;;2.67;;
35839;SDS011;35514;50.504;30.500;2022-09-09T02:28:30;7.28;;;3.15;;
35839;SDS011;35514;50.504;30.500;2022-09-09T02:31:01;10.35;;;2.83;;
35839;SDS011;35514;50.504;30.500;2022-09-09T02:33:30;5.68;;;2.45;;
35839;SDS011;35514;50.504;30.500;2022-09-09T02:36:01;6.18;;;2.78;;
35839;SDS011;35514;50.504;30.500;2022-09-09T02:38:30;7.30;;;2.78;;
35839;SDS011;35514;50.504;30.500;2022-09-09T02:41:00;10.35;;;2.80;;
35839;SDS011;35514;50.504;30.500;2022-09-09T02:43:30;5.88;;;3.03;;
35839;SDS011;35514;50.504;30.500;2022-09-09T02:46:01;5.97;;;2.70;;
35839;SDS011;35514;50.504;30.500;2022-09-09T02:48:34;7.15;;;3.75;;
35839;SDS011;35514;50.504;30.500;2022-09-09T02:51:04;7.63;;;2.90;;
35839;SDS011;35514;50.504;30.500;2022-09-09T02:53:35;8.23;;;2.65;;
35839;SDS011;35514;50.504;30.500;2022-09-09T02:56:08;5.70;;;2.67;;
35839;SDS011;35514;50.504;30.500;2022-09-09T02:58:36;5.57;;;2.83;;
35839;SDS011;35514;50.504;30.500;2022-09-09T03:01:05;10.00;;;2.70;;
35839;SDS011;35514;50.504;30.500;2022-09-09T03:03:52;5.80;;;2.70;;
35839;SDS011;35514;50.504;30.500;2022-09-09T03:06:21;5.13;;;2.70;;
35839;SDS011;35514;50.504;30.500;2022-09-09T03:08:49;5.80;;;3.05;;
35839;SDS011;35514;50.504;30.500;2022-09-09T03:11:16;5.85;;;2.80;;
35839;SDS011;35514;50.504;30.500;2022-09-09T03:13:44;5.47;;;3.00;;
35839;SDS011;35514;50.504;30.500;2022-09-09T03:16:12;7.53;;;3.20;;
35839;SDS011;35514;50.504;30.500;2022-09-09T03:18:41;6.18;;;2.85;;
35839;SDS011;35514;50.504;30.500;2022-09-09T03:21:10;7.80;;;2.97;;
35839;SDS011;35514;50.504;30.500;2022-09-09T03:23:38;9.52;;;2.80;;
35839;SDS011;35514;50.504;30.500;2022-09-09T03:26:06;8.77;;;2.83;;
35839;SDS011;35514;50.504;30.500;2022-09-09T03:28:33;7.53;;;3.20;;
35839;SDS011;35514;50.504;30.500;2022-09-09T03:31:02;11.60;;;3.55;;
35839;SDS011;35514;50.504;30.500;2022-09-09T03:33:30;6.65;;;3.15;;
35839;SDS011;35514;50.504;30.500;2022-09-09T03:35:57;7.28;;;2.97;;
35839;SDS011;35514;50.504;30.500;2022-09-09T03:38:26;6.07;;;2.90;;
35839;SDS011;35514;50.504;30.500;2022-09-09T03:40:55;9.38;;;3.53;;
35839;SDS011;35514;50.504;30.500;2022-09-09T03:43:24;7.78;;;3.17;;
35839;SDS011;35514;50.504;30.500;2022-09-09T03:45:51;6.57;;;2.92;;
35839;SDS011;35514;50.504;30.500;2022-09-09T03:48:19;5.00;;;2.60;;
35839;SDS011;35514;50.504;30.500;2022-09-09T03:50:47;7.05;;;3.63;;
35839;SDS011;35514;50.504;30.500;2022-09-09T03:53:15;8.02;;;3.63;;
35839;SDS011;35514;50.504;30.500;2022-09-09T03:55:45;6.80;;;3.10;;
35839;SDS011;35514;50.504;30.500;2022-09-09T03:58:12;7.25;;;2.97;;
35839;SDS011;35514;50.504;30.500;2022-09-09T04:00:40;10.35;;;3.47;;
35839;SDS011;35514;50.504;30.500;2022-09-09T04:03:09;10.35;;;3.50;;
35839;SDS011;35514;50.504;30.500;2022-09-09T04:05:39;13.35;;;3.53;;
35839;SDS011;35514;50.504;30.500;2022-09-09T04:08:08;4.10;;;2.55;;
35839;SDS011;35514;50.504;30.500;2022-09-09T04:10:37;11.23;;;3.10;;
35839;SDS011;35514;50.504;30.500;2022-09-09T04:13:06;6.57;;;3.47;;
35839;SDS011;35514;50.504;30.500;2022-09-09T04:15:33;10.32;;;3.08;;
35839;SDS011;35514;50.504;30.500;2022-09-09T04:18:02;8.15;;;2.75;;
35839;SDS011;35514;50.504;30.500;2022-09-09T04:20:30;10.85;;;3.45;;
35839;SDS011;35514;50.504;30.500;2022-09-09T04:22:58;5.10;;;2.67;;
35839;SDS011;35514;50.504;30.500;2022-09-09T04:25:25;6.75;;;3.85;;
35839;SDS011;35514;50.504;30.500;2022-09-09T04:27:53;7.28;;;2.88;;
35839;SDS011;35514;50.504;30.500;2022-09-09T04:30:23;10.13;;;3.58;;
35839;SDS011;35514;50.504;30.500;2022-09-09T04:32:51;8.85;;;3.60;;
35839;SDS011;35514;50.504;30.500;2022-09-09T04:35:18;7.50;;;2.85;;
35839;SDS011;35514;50.504;30.500;2022-09-09T04:37:47;5.47;;;2.92;;
35839;SDS011;35514;50.504;30.500;2022-09-09T04:40:15;7.85;;;3.38;;
35839;SDS011;35514;50.504;30.500;2022-09-09T04:42:43;9.60;;;3.13;;
35839;SDS011;35514;50.504;30.500;2022-09-09T04:45:11;5.28;;;2.47;;
35839;SDS011;35514;50.504;30.500;2022-09-09T04:47:41;4.93;;;2.63;;
35839;SDS011;35514;50.504;30.500;2022-09-09T04:50:08;5.30;;;2.80;;
35839;SDS011;35514;50.504;30.500;2022-09-09T04:52:36;5.55;;;2.83;;
35839;SDS011;35514;50.504;30.500;2022-09-09T04:55:04;6.93;;;3.08;;
35839;SDS011;35514;50.504;30.500;2022-09-09T04:57:32;7.22;;;3.05;;
35839;SDS011;35514;50.504;30.500;2022-09-09T05:00:00;6.22;;;2.33;;
35839;SDS011;35514;50.504;30.500;2022-09-09T05:02:29;5.88;;;2.53;;
35839;SDS011;35514;50.504;30.500;2022-09-09T05:04:59;5.80;;;2.53;;
35839;SDS011;35514;50.504;30.500;2022-09-09T05:07:27;4.45;;;2.28;;
35839;SDS011;35514;50.504;30.500;2022-09-09T05:09:55;7.03;;;2.30;;
35839;SDS011;35514;50.504;30.500;2022-09-09T05:12:23;7.68;;;2.25;;
35839;SDS011;35514;50.504;30.500;2022-09-09T05:14:51;4.18;;;2.10;;
35839;SDS011;35514;50.504;30.500;2022-09-09T05:17:20;9.20;;;3.30;;
35839;SDS011;35514;50.504;30.500;2022-09-09T05:19:48;7.38;;;2.55;;
35839;SDS011;35514;50.504;30.500;2022-09-09T05:22:19;6.22;;;2.55;;
35839;SDS011;35514;50.504;30.500;2022-09-09T05:24:47;5.93;;;2.70;;
35839;SDS011;35514;50.504;30.500;2022-09-09T05:27:17;8.90;;;2.28;;
35839;SDS011;35514;50.504;30.500;2022-09-09T05:29:45;5.68;;;2.58;;
35839;SDS011;35514;50.504;30.500;2022-09-09T05:32:14;4.80;;;2.70;;
35839;SDS011;35514;50.504;30.500;2022-09-09T05:34:43;6.13;;;2.63;;
35839;SDS011;35514;50.504;30.500;2022-09-09T05:37:11;8.25;;;3.08;;
35839;SDS011;35514;50.504;30.500;2022-09-09T05:39:42;8.43;;;3.65;;
35839;SDS011;35514;50.504;30.500;2022-09-09T05:42:10;5.75;;;2.63;;
35839;SDS011;35514;50.504;30.500;2022-09-09T05:44:37;6.43;;;3.08;;
35839;SDS011;35514;50.504;30.500;2022-09-09T05:47:05;9.52;;;2.92;;
35839;SDS011;35514;50.504;30.500;2022-09-09T05:49:34;8.45;;;2.67;;
35839;SDS011;35514;50.504;30.500;2022-09-09T05:52:03;6.90;;;2.80;;
35839;SDS011;35514;50.504;30.500;2022-09-09T05:54:31;6.35;;;2.50;;
35839;SDS011;35514;50.504;30.500;2022-09-09T05:57:01;7.35;;;2.50;;
35839;SDS011;35514;50.504;30.500;2022-09-09T05:59:29;6.63;;;2.95;;
35839;SDS011;35514;50.504;30.500;2022-09-09T06:01:59;8.13;;;2.22;;
35839;SDS011;35514;50.504;30.500;2022-09-09T06:04:29;6.60;;;3.22;;
35839;SDS011;35514;50.504;30.500;2022-09-09T06:06:57;5.93;;;2.85;;
35839;SDS011;35514;50.504;30.500;2022-09-09T06:09:25;8.98;;;3.03;;
35839;SDS011;35514;50.504;30.500;2022-09-09T06:11:53;6.32;;;3.20;;
35839;SDS011;35514;50.504;30.500;2022-09-09T06:14:24;8.02;;;2.80;;
35839;SDS011;35514;50.504;30.500;2022-09-09T06:16:53;5.43;;;2.45;;
35839;SDS011;35514;50.504;30.500;2022-09-09T06:19:21;4.03;;;2.80;;
35839;SDS011;35514;50.504;30.500;2022-09-09T06:21:50;6.30;;;2.92;;
35839;SDS011;35514;50.504;30.500;2022-09-09T06:24:18;5.40;;;3.28;;
35839;SDS011;35514;50.504;30.500;2022-09-09T06:26:46;7.53;;;2.70;;
35839;SDS011;35514;50.504;30.500;2022-09-09T06:29:14;5.97;;;2.45;;
35839;SDS011;35514;50.504;30.500;2022-09-09T06:31:43;7.45;;;2.13;;
35839;SDS011;35514;50.504;30.500;2022-09-09T06:34:11;5.57;;;2.83;;
35839;SDS011;35514;50.504;30.500;2022-09-09T06:36:39;5.30;;;2.40;;
35839;SDS011;35514;50.504;30.500;2022-09-09T06:39:07;5.60;;;2.90;;
35839;SDS011;35514;50.504;30.500;2022-09-09T06:41:40;7.90;;;2.70;;
35839;SDS011;35514;50.504;30.500;2022-09-09T06:44:09;5.13;;;2.63;;
35839;SDS011;35514;50.504;30.500;2022-09-09T06:46:38;7.97;;;2.70;;
35839;SDS011;35514;50.504;30.500;2022-09-09T06:49:08;5.88;;;2.40;;
35839;SDS011;35514;50.504;30.500;2022-09-09T06:51:36;8.63;;;2.40;;
35839;SDS011;35514;50.504;30.500;2022-09-09T06:54:09;11.57;;;2.20;;
35839;SDS011;35514;50.504;30.500;2022-09-09T06:56:37;4.03;;;2.05;;
35839;SDS011;35514;50.504;30.500;2022-09-09T06:59:07;4.15;;;2.35;;
35839;SDS011;35514;50.504;30.500;2022-09-09T07:01:36;5.80;;;3.33;;
35839;SDS011;35514;50.504;30.500;2022-09-09T07:04:04;4.82;;;2.42;;
35839;SDS011;35514;50.504;30.500;2022-09-09T07:06:36;3.92;;;2.20;;
35839;SDS011;35514;50.504;30.500;2022-09-09T07:09:04;4.57;;;1.95;;
35839;SDS011;35514;50.504;30.500;2022-09-09T07:11:34;9.13;;;1.88;;
35839;SDS011;35514;50.504;30.500;2022-09-09T07:14:04;8.55;;;1.67;;
35839;SDS011;35514;50.504;30.500;2022-09-09T07:16:31;4.68;;;1.90;;
35839;SDS011;35514;50.504;30.500;2022-09-09T07:18:59;5.05;;;2.28;;
35839;SDS011;35514;50.504;30.500;2022-09-09T07:21:31;3.60;;;1.88;;
35839;SDS011;35514;50.504;30.500;2022-09-09T07:24:03;2.92;;;1.73;;
35839;SDS011;35514;50.504;30.500;2022-09-09T07:26:34;7.25;;;2.08;;
35839;SDS011;35514;50.504;30.500;2022-09-09T07:29:02;3.50;;;1.70;;
35839;SDS011;35514;50.504;30.500;2022-09-09T07:31:30;4.20;;;1.70;;
35839;SDS011;35514;50.504;30.500;2022-09-09T07:34:00;5.97;;;2.13;;
35839;SDS011;35514;50.504;30.500;2022-09-09T07:36:29;3.35;;;2.00;;
35839;SDS011;35514;50.504;30.500;2022-09-09T07:38:59;4.47;;;2.03;;
35839;SDS011;35514;50.504;30.500;2022-09-09T07:41:30;2.00;;;1.30;;
35839;SDS011;35514;50.504;30.500;2022-09-09T07:44:03;4.95;;;1.65;;
35839;SDS011;35514;50.504;30.500;2022-09-09T07:46:32;3.08;;;1.58;;
35839;SDS011;35514;50.504;30.500;2022-09-09T07:49:01;4.47;;;1.70;;
35839;SDS011;35514;50.504;30.500;2022-09-09T07:51:32;4.53;;;1.75;;
35839;SDS011;35514;50.504;30.500;2022-09-09T07:54:02;3.30;;;1.90;;
35839;SDS011;35514;50.504;30.500;2022-09-09T07:56:33;3.28;;;1.85;;
35839;SDS011;35514;50.504;30.500;2022-09-09T07:59:01;3.17;;;1.33;;
35839;SDS011;35514;50.504;30.500;2022-09-09T08:01:31;5.28;;;1.40;;
35839;SDS011;35514;50.504;30.500;2022-09-09T08:04:00;2.45;;;1.40;;
35839;SDS011;35514;50.504;30.500;2022-09-09T08:06:28;3.72;;;1.48;;
35839;SDS011;35514;50.504;30.500;2022-09-09T08:08:57;5.63;;;1.30;;
35839;SDS011;35514;50.504;30.500;2022-09-09T08:11:25;3.30;;;1.40;;
35839;SDS011;35514;50.504;30.500;2022-09-09T08:13:55;2.58;;;1.45;;
35839;SDS011;35514;50.504;30.500;2022-09-09T08:18:55;2.03;;;1.00;;
35839;SDS011;35514;50.504;30.500;2022-09-09T08:21:24;1.90;;;1.00;;
35839;SDS011;35514;50.504;30.500;2022-09-09T08:23:53;4.20;;;1.42;;
35839;SDS011;35514;50.504;30.500;2022-09-09T08:26:24;1.33;;;0.90;;
35839;SDS011;35514;50.504;30.500;2022-09-09T08:28:53;1.95;;;0.90;;
35839;SDS011;35514;50.504;30.500;2022-09-09T08:31:24;6.40;;;2.53;;
35839;SDS011;35514;50.504;30.500;2022-09-09T08:33:52;1.40;;;1.10;;
35839;SDS011;35514;50.504;30.500;2022-09-09T08:36:20;1.83;;;1.35;;
35839;SDS011;35514;50.504;30.500;2022-09-09T08:38:49;2.22;;;1.10;;
35839;SDS011;35514;50.504;30.500;2022-09-09T08:41:25;3.63;;;1.35;;
35839;SDS011;35514;50.504;30.500;2022-09-09T08:43:59;4.07;;;1.10;;
35839;SDS011;35514;50.504;30.500;2022-09-09T08:46:32;5.60;;;1.70;;
35839;SDS011;35514;50.504;30.500;2022-09-09T08:49:05;8.38;;;2.80;;
35839;SDS011;35514;50.504;30.500;2022-09-09T08:51:35;5.05;;;0.80;;
35839;SDS011;35514;50.504;30.500;2022-09-09T08:54:06;3.53;;;1.02;;
35839;SDS011;35514;50.504;30.500;2022-09-09T08:56:34;9.00;;;1.67;;
35839;SDS011;35514;50.504;30.500;2022-09-09T08:59:02;3.88;;;1.00;;
35839;SDS011;35514;50.504;30.500;2022-09-09T09:01:38;8.27;;;1.15;;
35839;SDS011;35514;50.504;30.500;2022-09-09T09:04:13;1.98;;;1.15;;
35839;SDS011;35514;50.504;30.500;2022-09-09T09:06:47;2.28;;;1.00;;
35839;SDS011;35514;50.504;30.500;2022-09-09T09:09:21;6.68;;;1.02;;
35839;SDS011;35514;50.504;30.500;2022-09-09T09:11:51;2.50;;;1.23;;
35839;SDS011;35514;50.504;30.500;2022-09-09T09:14:21;7.20;;;1.00;;
35839;SDS011;35514;50.504;30.500;2022-09-09T09:16:52;3.47;;;1.20;;
35839;SDS011;35514;50.504;30.500;2022-09-09T09:19:21;4.47;;;1.40;;
35839;SDS011;35514;50.504;30.500;2022-09-09T09:21:53;6.00;;;1.40;;
35839;SDS011;35514;50.504;30.500;2022-09-09T09:24:23;1.70;;;1.25;;
35839;SDS011;35514;50.504;30.500;2022-09-09T09:27:21;1.40;;;0.80;;
35839;SDS011;35514;50.504;30.500;2022-09-09T09:29:55;3.28;;;1.30;;
35839;SDS011;35514;50.504;30.500;2022-09-09T09:32:47;1.95;;;1.10;;
35839;SDS011;35514;50.504;30.500;2022-09-09T09:35:16;1.80;;;1.10;;
35839;SDS011;35514;50.504;30.500;2022-09-09T09:37:44;1.90;;;1.30;;
35839;SDS011;35514;50.504;30.500;2022-09-09T09:40:33;6.05;;;1.25;;
35839;SDS011;35514;50.504;30.500;2022-09-09T09:43:00;3.63;;;1.40;;
35839;SDS011;35514;50.504;30.500;2022-09-09T09:45:32;2.08;;;1.25;;
35839;SDS011;35514;50.504;30.500;2022-09-09T09:48:03;2.55;;;1.10;;
35839;SDS011;35514;50.504;30.500;2022-09-09T09:50:33;1.98;;;1.00;;
35839;SDS011;35514;50.504;30.500;2022-09-09T09:53:02;2.08;;;1.08;;
35839;SDS011;35514;50.504;30.500;2022-09-09T09:55:31;1.45;;;0.80;;
35839;SDS011;35514;50.504;30.500;2022-09-09T09:58:03;1.33;;;0.88;;
35839;SDS011;35514;50.504;30.500;2022-09-09T10:00:32;3.50;;;0.80;;
35839;SDS011;35514;50.504;30.500;2022-09-09T10:03:01;4.72;;;1.00;;
35839;SDS011;35514;50.504;30.500;2022-09-09T10:05:30;1.52;;;0.80;;
35839;SDS011;35514;50.504;30.500;2022-09-09T10:08:05;4.35;;;1.00;;
35839;SDS011;35514;50.504;30.500;2022-09-09T10:10:40;5.00;;;1.33;;
35839;SDS011;35514;50.504;30.500;2022-09-09T10:13:15;2.58;;;1.40;;
35839;SDS011;35514;50.504;30.500;2022-09-09T10:15:48;6.78;;;0.80;;
35839;SDS011;35514;50.504;30.500;2022-09-09T10:18:25;1.90;;;0.63;;
35839;SDS011;35514;50.504;30.500;2022-09-09T10:21:03;1.83;;;1.17;;
35839;SDS011;35514;50.504;30.500;2022-09-09T10:23:42;2.45;;;0.82;;
35839;SDS011;35514;50.504;30.500;2022-09-09T10:26:22;2.03;;;1.02;;
35839;SDS011;35514;50.504;30.500;2022-09-09T10:28:56;1.95;;;1.00;;
35839;SDS011;35514;50.504;30.500;2022-09-09T10:31:30;3.40;;;1.98;;
35839;SDS011;35514;50.504;30.500;2022-09-09T10:34:02;3.03;;;2.25;;
35839;SDS011;35514;50.504;30.500;2022-09-09T10:36:34;5.95;;;1.27;;
35839;SDS011;35514;50.504;30.500;2022-09-09T10:39:03;2.45;;;0.98;;
35839;SDS011;35514;50.504;30.500;2022-09-09T10:41:35;3.30;;;0.77;;
35839;SDS011;35514;50.504;30.500;2022-09-09T10:46:59;2.08;;;0.90;;
35839;SDS011;35514;50.504;30.500;2022-09-09T10:49:42;1.63;;;0.95;;
35839;SDS011;35514;50.504;30.500;2022-09-09T10:52:15;2.75;;;0.85;;
35839;SDS011;35514;50.504;30.500;2022-09-09T10:54:48;1.25;;;0.60;;
35839;SDS011;35514;50.504;30.500;2022-09-09T10:57:22;1.85;;;0.85;;
35839;SDS011;35514;50.504;30.500;2022-09-09T10:59:55;4.80;;;0.73;;
35839;SDS011;35514;50.504;30.500;2022-09-09T11:02:26;0.98;;;0.63;;
35839;SDS011;35514;50.504;30.500;2022-09-09T11:04:55;4.70;;;0.85;;
35839;SDS011;35514;50.504;30.500;2022-09-09T11:07:27;1.85;;;0.90;;
35839;SDS011;35514;50.504;30.500;2022-09-09T11:09:58;1.70;;;0.93;;
35839;SDS011;35514;50.504;30.500;2022-09-09T11:12:27;6.55;;;1.08;;
35839;SDS011;35514;50.504;30.500;2022-09-09T11:14:57;1.35;;;0.90;;
35839;SDS011;35514;50.504;30.500;2022-09-09T11:17:28;3.33;;;1.10;;
35839;SDS011;35514;50.504;30.500;2022-09-09T11:19:58;4.10;;;0.90;;
35839;SDS011;35514;50.504;30.500;2022-09-09T11:22:29;2.63;;;0.80;;
35839;SDS011;35514;50.504;30.500;2022-09-09T11:24:59;3.65;;;1.98;;
35839;SDS011;35514;50.504;30.500;2022-09-09T11:27:29;1.63;;;0.90;;
35839;SDS011;35514;50.504;30.500;2022-09-09T11:30:03;4.47;;;0.98;;
35839;SDS011;35514;50.504;30.500;2022-09-09T11:35:24;2.13;;;1.00;;
35839;SDS011;35514;50.504;30.500;2022-09-09T11:40:24;4.30;;;1.00;;
35839;SDS011;35514;50.504;30.500;2022-09-09T11:43:02;2.67;;;0.98;;
35839;SDS011;35514;50.504;30.500;2022-09-09T11:45:32;3.53;;;1.00;;
35839;SDS011;35514;50.504;30.500;2022-09-09T11:48:03;1.73;;;0.82;;
35839;SDS011;35514;50.504;30.500;2022-09-09T11:50:35;1.92;;;1.00;;
35839;SDS011;35514;50.504;30.500;2022-09-09T11:53:20;3.70;;;1.05;;
35839;SDS011;35514;50.504;30.500;2022-09-09T11:58:55;2.90;;;0.82;;
35839;SDS011;35514;50.504;30.500;2022-09-09T12:01:29;4.00;;;0.90;;
35839;SDS011;35514;50.504;30.500;2022-09-09T12:04:10;5.65;;;1.00;;
35839;SDS011;35514;50.504;30.500;2022-09-09T12:06:46;3.03;;;0.80;;
35839;SDS011;35514;50.504;30.500;2022-09-09T12:09:18;2.90;;;0.90;;
35839;SDS011;35514;50.504;30.500;2022-09-09T12:11:47;9.13;;;1.95;;
35839;SDS011;35514;50.504;30.500;2022-09-09T12:14:20;2.97;;;1.00;;
35839;SDS011;35514;50.504;30.500;2022-09-09T12:19:18;3.55;;;0.80;;
35839;SDS011;35514;50.504;30.500;2022-09-09T12:21:54;1.60;;;0.70;;
35839;SDS011;35514;50.504;30.500;2022-09-09T12:24:27;3.38;;;1.27;;
35839;SDS011;35514;50.504;30.500;2022-09-09T12:26:58;1.95;;;1.10;;
35839;SDS011;35514;50.504;30.500;2022-09-09T12:29:30;2.00;;;0.77;;
35839;SDS011;35514;50.504;30.500;2022-09-09T12:32:01;3.60;;;0.80;;
35839;SDS011;35514;50.504;30.500;2022-09-09T12:34:38;1.48;;;0.95;;
35839;SDS011;35514;50.504;30.500;2022-09-09T12:37:13;2.70;;;0.73;;
35839;SDS011;35514;50.504;30.500;2022-09-09T12:39:46;1.42;;;0.80;;
35839;SDS011;35514;50.504;30.500;2022-09-09T12:42:18;7.82;;;1.38;;
35839;SDS011;35514;50.504;30.500;2022-09-09T12:44:54;2.35;;;0.98;;
35839;SDS011;35514;50.504;30.500;2022-09-09T12:47:24;8.00;;;1.20;;
35839;SDS011;35514;50.504;30.500;2022-09-09T12:52:25;2.00;;;0.98;;
35839;SDS011;35514;50.504;30.500;2022-09-09T12:54:57;1.52;;;0.98;;
35839;SDS011;35514;50.504;30.500;2022-09-09T12:57:25;3.10;;;1.25;;
35839;SDS011;35514;50.504;30.500;2022-09-09T13:00:03;2.90;;;1.00;;
35839;SDS011;35514;50.504;30.500;2022-09-09T13:02:32;4.32;;;1.20;;
35839;SDS011;35514;50.504;30.500;2022-09-09T13:05:05;2.30;;;1.10;;
35839;SDS011;35514;50.504;30.500;2022-09-09T13:07:33;1.73;;;1.00;;
35839;SDS011;35514;50.504;30.500;2022-09-09T13:10:02;4.03;;;1.27;;
35839;SDS011;35514;50.504;30.500;2022-09-09T13:12:30;4.10;;;1.35;;
35839;SDS011;35514;50.504;30.500;2022-09-09T13:14:59;5.50;;;1.30;;
35839;SDS011;35514;50.504;30.500;2022-09-09T13:17:28;2.75;;;1.35;;
35839;SDS011;35514;50.504;30.500;2022-09-09T13:19:56;1.60;;;0.98;;
35839;SDS011;35514;50.504;30.500;2022-09-09T13:22:27;15.05;;;1.88;;
35839;SDS011;35514;50.504;30.500;2022-09-09T13:25:01;8.18;;;1.10;;
35839;SDS011;35514;50.504;30.500;2022-09-09T13:27:30;7.05;;;1.50;;
35839;SDS011;35514;50.504;30.500;2022-09-09T13:29:59;5.32;;;0.80;;
35839;SDS011;35514;50.504;30.500;2022-09-09T13:32:29;8.93;;;1.20;;
35839;SDS011;35514;50.504;30.500;2022-09-09T13:34:58;8.15;;;1.00;;
35839;SDS011;35514;50.504;30.500;2022-09-09T13:37:28;4.68;;;1.23;;
35839;SDS011;35514;50.504;30.500;2022-09-09T13:39:58;2.42;;;1.05;;
35839;SDS011;35514;50.504;30.500;2022-09-09T13:42:27;2.05;;;1.45;;
35839;SDS011;35514;50.504;30.500;2022-09-09T13:44:56;6.28;;;1.75;;
35839;SDS011;35514;50.504;30.500;2022-09-09T13:47:28;3.25;;;0.95;;
35839;SDS011;35514;50.504;30.500;2022-09-09T13:49:58;6.82;;;1.20;;
35839;SDS011;35514;50.504;30.500;2022-09-09T13:52:30;2.50;;;1.27;;
35839;SDS011;35514;50.504;30.500;2022-09-09T13:54:58;6.18;;;1.50;;
35839;SDS011;35514;50.504;30.500;2022-09-09T13:57:26;2.45;;;1.13;;
35839;SDS011;35514;50.504;30.500;2022-09-09T13:59:54;3.50;;;1.67;;
35839;SDS011;35514;50.504;30.500;2022-09-09T14:02:33;5.45;;;1.23;;
35839;SDS011;35514;50.504;30.500;2022-09-09T14:05:01;2.92;;;1.05;;
35839;SDS011;35514;50.504;30.500;2022-09-09T14:07:28;3.25;;;1.08;;
35839;SDS011;35514;50.504;30.500;2022-09-09T14:09:56;3.83;;;1.10;;
35839;SDS011;35514;50.504;30.500;2022-09-09T14:12:24;8.75;;;1.90;;
35839;SDS011;35514;50.504;30.500;2022-09-09T14:14:52;4.72;;;1.92;;
35839;SDS011;35514;50.504;30.500;2022-09-09T14:17:19;10.52;;;1.55;;
35839;SDS011;35514;50.504;30.500;2022-09-09T14:19:49;3.65;;;1.50;;
35839;SDS011;35514;50.504;30.500;2022-09-09T14:22:17;8.48;;;1.60;;
35839;SDS011;35514;50.504;30.500;2022-09-09T14:24:45;5.80;;;1.50;;
35839;SDS011;35514;50.504;30.500;2022-09-09T14:27:13;2.42;;;1.30;;
35839;SDS011;35514;50.504;30.500;2022-09-09T14:29:40;5.30;;;1.20;;
35839;SDS011;35514;50.504;30.500;2022-09-09T14:32:10;6.40;;;1.13;;
35839;SDS011;35514;50.504;30.500;2022-09-09T14:34:41;2.08;;;1.00;;
35839;SDS011;35514;50.504;30.500;2022-09-09T14:37:10;3.15;;;1.40;;
35839;SDS011;35514;50.504;30.500;2022-09-09T14:39:38;2.85;;;1.33;;
35839;SDS011;35514;50.504;30.500;2022-09-09T14:42:06;5.88;;;1.45;;
35839;SDS011;35514;50.504;30.500;2022-09-09T14:44:37;3.88;;;1.45;;
35839;SDS011;35514;50.504;30.500;2022-09-09T14:47:06;2.88;;;1.35;;
35839;SDS011;35514;50.504;30.500;2022-09-09T14:49:34;3.15;;;1.40;;
35839;SDS011;35514;50.504;30.500;2022-09-09T14:52:02;3.00;;;1.27;;
35839;SDS011;35514;50.504;30.500;2022-09-09T14:54:31;4.15;;;1.70;;
35839;SDS011;35514;50.504;30.500;2022-09-09T14:56:59;6.32;;;1.63;;
35839;SDS011;35514;50.504;30.500;2022-09-09T14:59:26;2.70;;;1.50;;
35839;SDS011;35514;50.504;30.500;2022-09-09T15:01:54;4.75;;;1.60;;
35839;SDS011;35514;50.504;30.500;2022-09-09T15:04:22;4.85;;;1.50;;
35839;SDS011;35514;50.504;30.500;2022-09-09T15:06:50;5.07;;;2.00;;
35839;SDS011;35514;50.504;30.500;2022-09-09T15:09:19;5.78;;;2.00;;
35839;SDS011;35514;50.504;30.500;2022-09-09T15:11:48;6.32;;;2.38;;